sensor_id;sensor_type;location;lat;lon;timestamp;pressure;altitude;pressure_sealevel;temperature;humidity
61119;BME280;51448;51.660;5.824;2023-12-07T00:00:50;101838.31;;;1.02;100.00
61119;BME280;51448;51.660;5.824;2023-12-07T00:03:18;101821.09;;;1.03;100.00
61119;BME280;51448;51.660;5.824;2023-12-07T00:05:45;101831.34;;;0.99;100.00
61119;BME280;51448;51.660;5.824;2023-12-07T00:08:13;101832.09;;;0.95;100.00
61119;BME280;51448;51.660;5.824;2023-12-07T00:10:40;101833.72;;;0.92;100.00
61119;BME280;51448;51.660;5.824;2023-12-07T00:13:08;101835.38;;;0.90;100.00
61119;BME280;51448;51.660;5.824;2023-12-07T00:15:36;101834.53;;;0.89;100.00
61119;BME280;51448;51.660;5.824;2023-12-07T00:18:04;101829.28;;;0.88;100.00
61119;BME280;51448;51.660;5.824;2023-12-07T00:20:31;101831.88;;;0.88;100.00
61119;BME280;51448;51.660;5.824;2023-12-07T00:22:59;101827.56;;;0.87;100.00
61119;BME280;51448;51.660;5.824;2023-12-07T00:25:26;101832.72;;;0.87;100.00
61119;BME280;51448;51.660;5.824;2023-12-07T00:27:54;101835.22;;;0.84;100.00
61119;BME280;51448;51.660;5.824;2023-12-07T00:30:21;101834.28;;;0.82;100.00
61119;BME280;51448;51.660;5.824;2023-12-07T00:32:49;101829.06;;;0.78;100.00
61119;BME280;51448;51.660;5.824;2023-12-07T00:35:16;101830.63;;;0.73;100.00
61119;BME280;51448;51.660;5.824;2023-12-07T00:37:45;101833.09;;;0.69;100.00
61119;BME280;51448;51.660;5.824;2023-12-07T00:40:12;101831.28;;;0.66;100.00
61119;BME280;51448;51.660;5.824;2023-12-07T00:42:40;101822.56;;;0.63;100.00
61119;BME280;51448;51.660;5.824;2023-12-07T00:45:08;101829.41;;;0.60;100.00
61119;BME280;51448;51.660;5.824;2023-12-07T00:47:36;101837.09;;;0.57;100.00
61119;BME280;51448;51.660;5.824;2023-12-07T00:50:03;101830.03;;;0.52;100.00
61119;BME280;51448;51.660;5.824;2023-12-07T00:52:32;101838.53;;;0.48;100.00
61119;BME280;51448;51.660;5.824;2023-12-07T00:54:59;101844.50;;;0.45;100.00
61119;BME280;51448;51.660;5.824;2023-12-07T00:57:38;101843.53;;;0.42;100.00
61119;BME280;51448;51.660;5.824;2023-12-07T01:00:07;101837.41;;;0.39;100.00
61119;BME280;51448;51.660;5.824;2023-12-07T01:02:35;101833.84;;;0.36;100.00
61119;BME280;51448;51.660;5.824;2023-12-07T01:05:03;101833.72;;;0.31;100.00
61119;BME280;51448;51.660;5.824;2023-12-07T01:07:30;101834.53;;;0.29;100.00
61119;BME280;51448;51.660;5.824;2023-12-07T01:09:58;101837.06;;;0.27;100.00
61119;BME280;51448;51.660;5.824;2023-12-07T01:12:25;101836.94;;;0.23;100.00
61119;BME280;51448;51.660;5.824;2023-12-07T01:14:53;101837.66;;;0.18;100.00
61119;BME280;51448;51.660;5.824;2023-12-07T01:17:20;101835.75;;;0.13;100.00
61119;BME280;51448;51.660;5.824;2023-12-07T01:19:48;101843.41;;;0.10;100.00
61119;BME280;51448;51.660;5.824;2023-12-07T01:22:16;101842.47;;;0.08;100.00
61119;BME280;51448;51.660;5.824;2023-12-07T01:24:43;101855.34;;;0.05;100.00
61119;BME280;51448;51.660;5.824;2023-12-07T01:27:11;101865.63;;;0.03;100.00
61119;BME280;51448;51.660;5.824;2023-12-07T01:29:39;101858.53;;;-0.03;100.00
61119;BME280;51448;51.660;5.824;2023-12-07T01:32:06;101861.06;;;-0.06;100.00
61119;BME280;51448;51.660;5.824;2023-12-07T01:34:34;101853.16;;;-0.10;100.00
61119;BME280;51448;51.660;5.824;2023-12-07T01:37:02;101860.00;;;-0.11;100.00
61119;BME280;51448;51.660;5.824;2023-12-07T01:39:29;101859.09;;;-0.13;100.00
61119;BME280;51448;51.660;5.824;2023-12-07T01:41:57;101862.50;;;-0.14;100.00
61119;BME280;51448;51.660;5.824;2023-12-07T01:44:24;101867.56;;;-0.17;100.00
61119;BME280;51448;51.660;5.824;2023-12-07T01:46:53;101861.38;;;-0.22;100.00
61119;BME280;51448;51.660;5.824;2023-12-07T01:49:21;101870.69;;;-0.27;100.00
61119;BME280;51448;51.660;5.824;2023-12-07T01:51:49;101858.53;;;-0.30;100.00
61119;BME280;51448;51.660;5.824;2023-12-07T01:54:17;101860.25;;;-0.30;100.00
61119;BME280;51448;51.660;5.824;2023-12-07T01:56:44;101863.63;;;-0.33;100.00
61119;BME280;51448;51.660;5.824;2023-12-07T01:59:12;101870.41;;;-0.36;100.00
61119;BME280;51448;51.660;5.824;2023-12-07T02:01:40;101863.50;;;-0.36;100.00
61119;BME280;51448;51.660;5.824;2023-12-07T02:04:09;101861.84;;;-0.34;100.00
61119;BME280;51448;51.660;5.824;2023-12-07T02:06:37;101860.13;;;-0.33;100.00
61119;BME280;51448;51.660;5.824;2023-12-07T02:09:05;101868.69;;;-0.36;100.00
61119;BME280;51448;51.660;5.824;2023-12-07T02:11:33;101870.06;;;-0.46;100.00
61119;BME280;51448;51.660;5.824;2023-12-07T02:14:01;101868.00;;;-0.56;100.00
61119;BME280;51448;51.660;5.824;2023-12-07T02:16:48;101872.94;;;-0.64;100.00
61119;BME280;51448;51.660;5.824;2023-12-07T02:22:17;101887.28;;;-0.72;100.00
61119;BME280;51448;51.660;5.824;2023-12-07T02:27:40;101882.16;;;-0.70;100.00
61119;BME280;51448;51.660;5.824;2023-12-07T02:30:10;101874.53;;;-0.67;100.00
61119;BME280;51448;51.660;5.824;2023-12-07T02:32:40;101868.50;;;-0.66;100.00
61119;BME280;51448;51.660;5.824;2023-12-07T02:35:10;101865.94;;;-0.66;100.00
61119;BME280;51448;51.660;5.824;2023-12-07T02:37:48;101868.50;;;-0.66;100.00
61119;BME280;51448;51.660;5.824;2023-12-07T02:40:27;101865.06;;;-0.67;100.00
61119;BME280;51448;51.660;5.824;2023-12-07T02:42:56;101868.44;;;-0.69;100.00
61119;BME280;51448;51.660;5.824;2023-12-07T02:45:25;101860.56;;;-0.72;100.00
61119;BME280;51448;51.660;5.824;2023-12-07T02:47:54;101857.03;;;-0.74;100.00
61119;BME280;51448;51.660;5.824;2023-12-07T02:50:21;101863.84;;;-0.76;100.00
61119;BME280;51448;51.660;5.824;2023-12-07T02:52:49;101871.56;;;-0.78;100.00
61119;BME280;51448;51.660;5.824;2023-12-07T02:55:16;101866.41;;;-0.78;100.00
61119;BME280;51448;51.660;5.824;2023-12-07T02:57:45;101854.44;;;-0.76;100.00
61119;BME280;51448;51.660;5.824;2023-12-07T03:00:13;101857.16;;;-0.71;100.00
61119;BME280;51448;51.660;5.824;2023-12-07T03:02:41;101858.09;;;-0.69;100.00
61119;BME280;51448;51.660;5.824;2023-12-07T03:05:09;101856.38;;;-0.69;100.00
61119;BME280;51448;51.660;5.824;2023-12-07T03:07:37;101853.84;;;-0.67;100.00
61119;BME280;51448;51.660;5.824;2023-12-07T03:10:05;101849.63;;;-0.65;100.00
61119;BME280;51448;51.660;5.824;2023-12-07T03:12:33;101853.94;;;-0.64;100.00
61119;BME280;51448;51.660;5.824;2023-12-07T03:15:00;101854.88;;;-0.62;100.00
61119;BME280;51448;51.660;5.824;2023-12-07T03:17:28;101857.47;;;-0.62;100.00
61119;BME280;51448;51.660;5.824;2023-12-07T03:19:56;101857.47;;;-0.62;100.00
61119;BME280;51448;51.660;5.824;2023-12-07T03:22:24;101851.53;;;-0.59;100.00
61119;BME280;51448;51.660;5.824;2023-12-07T03:24:52;101856.72;;;-0.58;100.00
61119;BME280;51448;51.660;5.824;2023-12-07T03:27:20;101860.22;;;-0.57;100.00
61119;BME280;51448;51.660;5.824;2023-12-07T03:29:48;101855.06;;;-0.57;100.00
61119;BME280;51448;51.660;5.824;2023-12-07T03:32:15;101856.78;;;-0.56;100.00
61119;BME280;51448;51.660;5.824;2023-12-07T03:34:43;101855.97;;;-0.55;100.00
61119;BME280;51448;51.660;5.824;2023-12-07T03:37:10;101865.41;;;-0.56;100.00
61119;BME280;51448;51.660;5.824;2023-12-07T03:39:38;101862.84;;;-0.56;100.00
61119;BME280;51448;51.660;5.824;2023-12-07T03:42:07;101870.66;;;-0.54;100.00
61119;BME280;51448;51.660;5.824;2023-12-07T03:44:54;101865.53;;;-0.53;100.00
61119;BME280;51448;51.660;5.824;2023-12-07T03:47:22;101869.88;;;-0.52;100.00
61119;BME280;51448;51.660;5.824;2023-12-07T03:49:50;101879.38;;;-0.51;100.00
61119;BME280;51448;51.660;5.824;2023-12-07T03:52:17;101876.88;;;-0.49;100.00
61119;BME280;51448;51.660;5.824;2023-12-07T03:54:45;101873.50;;;-0.47;100.00
61119;BME280;51448;51.660;5.824;2023-12-07T03:57:12;101871.84;;;-0.45;100.00
61119;BME280;51448;51.660;5.824;2023-12-07T03:59:40;101874.44;;;-0.45;100.00
61119;BME280;51448;51.660;5.824;2023-12-07T04:02:07;101872.78;;;-0.43;100.00
61119;BME280;51448;51.660;5.824;2023-12-07T04:04:35;101875.41;;;-0.41;100.00
61119;BME280;51448;51.660;5.824;2023-12-07T04:07:03;101884.13;;;-0.37;100.00
61119;BME280;51448;51.660;5.824;2023-12-07T04:09:30;101876.44;;;-0.36;100.00
61119;BME280;51448;51.660;5.824;2023-12-07T04:11:58;101885.06;;;-0.35;100.00
61119;BME280;51448;51.660;5.824;2023-12-07T04:14:25;101891.06;;;-0.36;100.00
61119;BME280;51448;51.660;5.824;2023-12-07T04:16:53;101885.91;;;-0.36;100.00
61119;BME280;51448;51.660;5.824;2023-12-07T04:19:20;101894.59;;;-0.34;100.00
61119;BME280;51448;51.660;5.824;2023-12-07T04:21:48;101896.25;;;-0.36;100.00
61119;BME280;51448;51.660;5.824;2023-12-07T04:24:15;101898.00;;;-0.35;100.00
61119;BME280;51448;51.660;5.824;2023-12-07T04:26:43;101895.38;;;-0.37;100.00
61119;BME280;51448;51.660;5.824;2023-12-07T04:29:10;101904.06;;;-0.35;100.00
61119;BME280;51448;51.660;5.824;2023-12-07T04:31:38;101903.22;;;-0.34;100.00
61119;BME280;51448;51.660;5.824;2023-12-07T04:34:06;101909.16;;;-0.36;100.00
61119;BME280;51448;51.660;5.824;2023-12-07T04:36:33;101905.72;;;-0.37;100.00
61119;BME280;51448;51.660;5.824;2023-12-07T04:39:01;101905.66;;;-0.38;100.00
61119;BME280;51448;51.660;5.824;2023-12-07T04:41:28;101910.75;;;-0.40;100.00
61119;BME280;51448;51.660;5.824;2023-12-07T04:43:56;101911.63;;;-0.39;100.00
61119;BME280;51448;51.660;5.824;2023-12-07T04:46:24;101911.53;;;-0.43;100.00
61119;BME280;51448;51.660;5.824;2023-12-07T04:48:51;101913.28;;;-0.42;100.00
61119;BME280;51448;51.660;5.824;2023-12-07T04:51:19;101912.41;;;-0.42;100.00
61119;BME280;51448;51.660;5.824;2023-12-07T04:53:47;101915.84;;;-0.43;100.00
61119;BME280;51448;51.660;5.824;2023-12-07T04:56:14;101909.78;;;-0.44;100.00
61119;BME280;51448;51.660;5.824;2023-12-07T04:58:42;101910.69;;;-0.43;100.00
61119;BME280;51448;51.660;5.824;2023-12-07T05:01:09;101909.78;;;-0.44;100.00
61119;BME280;51448;51.660;5.824;2023-12-07T05:03:37;101903.78;;;-0.43;100.00
61119;BME280;51448;51.660;5.824;2023-12-07T05:06:05;101907.31;;;-0.41;100.00
61119;BME280;51448;51.660;5.824;2023-12-07T05:08:32;101902.06;;;-0.42;100.00
61119;BME280;51448;51.660;5.824;2023-12-07T05:11:00;101902.94;;;-0.42;100.00
61119;BME280;51448;51.660;5.824;2023-12-07T05:13:28;101893.53;;;-0.39;100.00
61119;BME280;51448;51.660;5.824;2023-12-07T05:15:55;101896.19;;;-0.38;100.00
61119;BME280;51448;51.660;5.824;2023-12-07T05:18:23;101893.59;;;-0.38;100.00
61119;BME280;51448;51.660;5.824;2023-12-07T05:20:50;101898.88;;;-0.35;100.00
61119;BME280;51448;51.660;5.824;2023-12-07T05:23:18;101899.84;;;-0.31;100.00
61119;BME280;51448;51.660;5.824;2023-12-07T05:25:45;101896.44;;;-0.30;100.00
61119;BME280;51448;51.660;5.824;2023-12-07T05:28:13;101901.69;;;-0.29;100.00
61119;BME280;51448;51.660;5.824;2023-12-07T05:30:40;101893.94;;;-0.29;100.00
61119;BME280;51448;51.660;5.824;2023-12-07T05:33:11;101893.94;;;-0.27;100.00
61119;BME280;51448;51.660;5.824;2023-12-07T05:35:39;101899.97;;;-0.28;100.00
61119;BME280;51448;51.660;5.824;2023-12-07T05:38:07;101886.09;;;-0.30;100.00
61119;BME280;51448;51.660;5.824;2023-12-07T05:40:34;101887.84;;;-0.29;100.00
61119;BME280;51448;51.660;5.824;2023-12-07T05:43:02;101887.91;;;-0.28;100.00
61119;BME280;51448;51.660;5.824;2023-12-07T05:45:30;101879.22;;;-0.30;100.00
61119;BME280;51448;51.660;5.824;2023-12-07T05:47:58;101891.28;;;-0.30;100.00
61119;BME280;51448;51.660;5.824;2023-12-07T05:50:25;101890.50;;;-0.28;100.00
61119;BME280;51448;51.660;5.824;2023-12-07T05:52:53;101893.03;;;-0.29;100.00
61119;BME280;51448;51.660;5.824;2023-12-07T05:55:21;101890.41;;;-0.31;100.00
61119;BME280;51448;51.660;5.824;2023-12-07T05:57:48;101887.81;;;-0.31;100.00
61119;BME280;51448;51.660;5.824;2023-12-07T06:00:16;101885.97;;;-0.35;100.00
61119;BME280;51448;51.660;5.824;2023-12-07T06:02:44;101880.75;;;-0.36;100.00
61119;BME280;51448;51.660;5.824;2023-12-07T06:05:12;101885.91;;;-0.36;100.00
61119;BME280;51448;51.660;5.824;2023-12-07T06:07:39;101885.97;;;-0.35;100.00
61119;BME280;51448;51.660;5.824;2023-12-07T06:10:07;101880.78;;;-0.35;100.00
61119;BME280;51448;51.660;5.824;2023-12-07T06:12:35;101875.56;;;-0.36;100.00
61119;BME280;51448;51.660;5.824;2023-12-07T06:15:04;101880.63;;;-0.39;100.00
61119;BME280;51448;51.660;5.824;2023-12-07T06:17:35;101873.59;;;-0.44;100.00
61119;BME280;51448;51.660;5.824;2023-12-07T06:20:03;101877.81;;;-0.46;100.00
61119;BME280;51448;51.660;5.824;2023-12-07T06:22:31;101874.38;;;-0.46;100.00
61119;BME280;51448;51.660;5.824;2023-12-07T06:24:59;101874.31;;;-0.48;100.00
61119;BME280;51448;51.660;5.824;2023-12-07T06:27:28;101880.31;;;-0.49;100.00
61119;BME280;51448;51.660;5.824;2023-12-07T06:29:55;101885.56;;;-0.46;100.00
61119;BME280;51448;51.660;5.824;2023-12-07T06:32:23;101886.47;;;-0.45;100.00
61119;BME280;51448;51.660;5.824;2023-12-07T06:34:51;101889.94;;;-0.45;100.00
61119;BME280;51448;51.660;5.824;2023-12-07T06:37:19;101893.44;;;-0.43;100.00
61119;BME280;51448;51.660;5.824;2023-12-07T06:39:47;101895.16;;;-0.43;100.00
61119;BME280;51448;51.660;5.824;2023-12-07T06:42:16;101891.75;;;-0.42;100.00
61119;BME280;51448;51.660;5.824;2023-12-07T06:44:46;101891.75;;;-0.42;100.00
61119;BME280;51448;51.660;5.824;2023-12-07T06:47:16;101890.94;;;-0.41;100.00
61119;BME280;51448;51.660;5.824;2023-12-07T06:49:45;101895.38;;;-0.37;100.00
61119;BME280;51448;51.660;5.824;2023-12-07T06:52:19;101894.47;;;-0.37;100.00
61119;BME280;51448;51.660;5.824;2023-12-07T06:54:47;101884.13;;;-0.37;100.00
61119;BME280;51448;51.660;5.824;2023-12-07T06:57:15;101888.44;;;-0.38;100.00
61119;BME280;51448;51.660;5.824;2023-12-07T06:59:42;101889.31;;;-0.37;100.00
61119;BME280;51448;51.660;5.824;2023-12-07T07:02:10;101883.25;;;-0.38;100.00
61119;BME280;51448;51.660;5.824;2023-12-07T07:04:37;101893.66;;;-0.36;100.00
61119;BME280;51448;51.660;5.824;2023-12-07T07:07:05;101899.69;;;-0.36;100.00
61119;BME280;51448;51.660;5.824;2023-12-07T07:09:32;101893.72;;;-0.35;100.00
61119;BME280;51448;51.660;5.824;2023-12-07T07:12:00;101887.63;;;-0.37;100.00
61119;BME280;51448;51.660;5.824;2023-12-07T07:14:28;101889.31;;;-0.37;100.00
61119;BME280;51448;51.660;5.824;2023-12-07T07:16:55;101886.78;;;-0.36;100.00
61119;BME280;51448;51.660;5.824;2023-12-07T07:19:23;101880.78;;;-0.35;100.00
61119;BME280;51448;51.660;5.824;2023-12-07T07:21:50;101877.41;;;-0.32;100.00
61119;BME280;51448;51.660;5.824;2023-12-07T07:24:18;101883.53;;;-0.30;100.00
61119;BME280;51448;51.660;5.824;2023-12-07T07:26:45;101886.09;;;-0.30;100.00
61119;BME280;51448;51.660;5.824;2023-12-07T07:29:13;101890.44;;;-0.29;100.00
61119;BME280;51448;51.660;5.824;2023-12-07T07:31:40;101886.09;;;-0.30;100.00
61119;BME280;51448;51.660;5.824;2023-12-07T07:34:08;101893.94;;;-0.29;100.00
61119;BME280;51448;51.660;5.824;2023-12-07T07:36:36;101891.38;;;-0.27;100.00
61119;BME280;51448;51.660;5.824;2023-12-07T07:39:03;101896.53;;;-0.27;100.00
61119;BME280;51448;51.660;5.824;2023-12-07T07:41:35;101900.91;;;-0.26;100.00
61119;BME280;51448;51.660;5.824;2023-12-07T07:44:03;101893.13;;;-0.26;100.00
61119;BME280;51448;51.660;5.824;2023-12-07T07:46:31;101892.28;;;-0.25;100.00
61119;BME280;51448;51.660;5.824;2023-12-07T07:48:59;101881.16;;;-0.24;100.00
61119;BME280;51448;51.660;5.824;2023-12-07T07:51:26;101896.72;;;-0.23;100.00
61119;BME280;51448;51.660;5.824;2023-12-07T07:53:54;101895.88;;;-0.22;100.00
61119;BME280;51448;51.660;5.824;2023-12-07T07:56:25;101896.78;;;-0.19;100.00
61119;BME280;51448;51.660;5.824;2023-12-07T07:58:52;101902.03;;;-0.18;100.00
61119;BME280;51448;51.660;5.824;2023-12-07T08:01:20;101900.38;;;-0.16;100.00
61119;BME280;51448;51.660;5.824;2023-12-07T08:03:47;101894.34;;;-0.15;100.00
61119;BME280;51448;51.660;5.824;2023-12-07T08:06:15;101900.50;;;-0.11;100.00
61119;BME280;51448;51.660;5.824;2023-12-07T08:08:43;101898.03;;;-0.08;100.00
61119;BME280;51448;51.660;5.824;2023-12-07T08:11:10;101907.59;;;-0.06;100.00
61119;BME280;51448;51.660;5.824;2023-12-07T08:13:41;101897.25;;;-0.06;100.00
61119;BME280;51448;51.660;5.824;2023-12-07T08:16:09;101893.81;;;-0.05;100.00
61119;BME280;51448;51.660;5.824;2023-12-07T08:18:36;101892.09;;;-0.06;100.00
61119;BME280;51448;51.660;5.824;2023-12-07T08:21:05;101893.88;;;-0.03;100.00
61119;BME280;51448;51.660;5.824;2023-12-07T08:23:35;101886.25;;;0.00;100.00
61119;BME280;51448;51.660;5.824;2023-12-07T08:26:03;101892.22;;;-0.01;100.00
61119;BME280;51448;51.660;5.824;2023-12-07T08:28:30;101886.97;;;-0.04;100.00
61119;BME280;51448;51.660;5.824;2023-12-07T08:30:58;101887.00;;;-0.03;100.00
61119;BME280;51448;51.660;5.824;2023-12-07T08:33:33;101883.59;;;-0.02;100.00
61119;BME280;51448;51.660;5.824;2023-12-07T08:36:17;101888.81;;;0.00;100.00
61119;BME280;51448;51.660;5.824;2023-12-07T08:38:45;101895.69;;;-0.01;100.00
61119;BME280;51448;51.660;5.824;2023-12-07T08:41:13;101893.22;;;0.03;100.00
61119;BME280;51448;51.660;5.824;2023-12-07T08:43:41;101898.38;;;0.03;100.00
61119;BME280;51448;51.660;5.824;2023-12-07T08:46:09;101892.38;;;0.04;100.00
61119;BME280;51448;51.660;5.824;2023-12-07T08:48:37;101894.13;;;0.05;100.00
61119;BME280;51448;51.660;5.824;2023-12-07T08:51:09;101888.13;;;0.06;100.00
61119;BME280;51448;51.660;5.824;2023-12-07T08:53:40;101897.66;;;0.07;100.00
61119;BME280;51448;51.660;5.824;2023-12-07T08:56:08;101897.72;;;0.10;100.00
61119;BME280;51448;51.660;5.824;2023-12-07T08:58:45;101897.84;;;0.13;100.00
61119;BME280;51448;51.660;5.824;2023-12-07T09:01:19;101889.34;;;0.17;100.00
61119;BME280;51448;51.660;5.824;2023-12-07T09:03:59;101892.88;;;0.19;100.00
61119;BME280;51448;51.660;5.824;2023-12-07T09:06:27;101894.72;;;0.23;100.00
61119;BME280;51448;51.660;5.824;2023-12-07T09:08:54;101887.16;;;0.29;100.00
61119;BME280;51448;51.660;5.824;2023-12-07T09:11:22;101890.78;;;0.36;100.00
61119;BME280;51448;51.660;5.824;2023-12-07T09:13:50;101886.59;;;0.39;100.00
61119;BME280;51448;51.660;5.824;2023-12-07T09:16:18;101874.59;;;0.42;100.00
61119;BME280;51448;51.660;5.824;2023-12-07T09:18:45;101877.25;;;0.45;100.00
61119;BME280;51448;51.660;5.824;2023-12-07T09:21:13;101870.41;;;0.47;100.00
61119;BME280;51448;51.660;5.824;2023-12-07T09:23:42;101873.06;;;0.48;100.00
61119;BME280;51448;51.660;5.824;2023-12-07T09:26:09;101875.75;;;0.51;100.00
61119;BME280;51448;51.660;5.824;2023-12-07T09:28:37;101880.19;;;0.55;100.00
61119;BME280;51448;51.660;5.824;2023-12-07T09:31:06;101882.03;;;0.59;100.00
61119;BME280;51448;51.660;5.824;2023-12-07T09:33:34;101869.16;;;0.63;100.00
61119;BME280;51448;51.660;5.824;2023-12-07T09:36:02;101864.09;;;0.67;100.00
61119;BME280;51448;51.660;5.824;2023-12-07T09:38:35;101870.31;;;0.72;100.00
61119;BME280;51448;51.660;5.824;2023-12-07T09:41:04;101864.38;;;0.76;100.00
61119;BME280;51448;51.660;5.824;2023-12-07T09:43:32;101880.03;;;0.81;100.00
61119;BME280;51448;51.660;5.824;2023-12-07T09:46:00;101874.97;;;0.84;100.00
61119;BME280;51448;51.660;5.824;2023-12-07T09:48:28;101873.31;;;0.88;100.00
61119;BME280;51448;51.660;5.824;2023-12-07T09:50:56;101866.56;;;0.93;100.00
61119;BME280;51448;51.660;5.824;2023-12-07T09:53:24;101864.16;;;0.99;100.00
61119;BME280;51448;51.660;5.824;2023-12-07T09:55:53;101861.69;;;1.04;100.00
61119;BME280;51448;51.660;5.824;2023-12-07T09:58:21;101850.56;;;1.08;100.00
61119;BME280;51448;51.660;5.824;2023-12-07T10:01:04;101849.00;;;1.13;100.00
61119;BME280;51448;51.660;5.824;2023-12-07T10:03:32;101846.53;;;1.17;100.00
61119;BME280;51448;51.660;5.824;2023-12-07T10:06:00;101844.09;;;1.24;100.00
61119;BME280;51448;51.660;5.824;2023-12-07T10:08:33;101831.28;;;1.30;100.00
61119;BME280;51448;51.660;5.824;2023-12-07T10:11:08;101829.66;;;1.33;100.00
61119;BME280;51448;51.660;5.824;2023-12-07T10:13:37;101819.44;;;1.39;100.00
61119;BME280;51448;51.660;5.824;2023-12-07T10:16:11;101822.09;;;1.43;100.00
61119;BME280;51448;51.660;5.824;2023-12-07T10:18:40;101807.50;;;1.46;100.00
61119;BME280;51448;51.660;5.824;2023-12-07T10:21:11;101811.16;;;1.54;100.00
61119;BME280;51448;51.660;5.824;2023-12-07T10:23:41;101804.41;;;1.61;100.00
61119;BME280;51448;51.660;5.824;2023-12-07T10:26:16;101803.59;;;1.64;100.00
61119;BME280;51448;51.660;5.824;2023-12-07T10:28:49;101805.44;;;1.68;100.00
61119;BME280;51448;51.660;5.824;2023-12-07T10:31:23;101794.34;;;1.73;100.00
61119;BME280;51448;51.660;5.824;2023-12-07T10:33:51;101796.16;;;1.77;100.00
61119;BME280;51448;51.660;5.824;2023-12-07T10:36:19;101789.38;;;1.83;100.00
61119;BME280;51448;51.660;5.824;2023-12-07T10:38:47;101782.59;;;1.89;100.00
61119;BME280;51448;51.660;5.824;2023-12-07T10:41:19;101772.28;;;1.92;100.00
61119;BME280;51448;51.660;5.824;2023-12-07T10:44:07;101772.34;;;1.95;100.00
61119;BME280;51448;51.660;5.824;2023-12-07T10:46:39;101774.22;;;2.03;100.00
61119;BME280;51448;51.660;5.824;2023-12-07T10:49:14;101759.56;;;2.05;100.00
61119;BME280;51448;51.660;5.824;2023-12-07T10:52:00;101748.38;;;2.06;100.00
61119;BME280;51448;51.660;5.824;2023-12-07T10:54:41;101745.91;;;2.12;100.00
61119;BME280;51448;51.660;5.824;2023-12-07T10:57:19;101739.09;;;2.18;100.00
61119;BME280;51448;51.660;5.824;2023-12-07T10:59:50;101731.41;;;2.23;100.00
61119;BME280;51448;51.660;5.824;2023-12-07T11:02:21;101735.91;;;2.30;100.00
61119;BME280;51448;51.660;5.824;2023-12-07T11:04:50;101725.69;;;2.38;100.00
61119;BME280;51448;51.660;5.824;2023-12-07T11:07:20;101719.75;;;2.45;100.00
61119;BME280;51448;51.660;5.824;2023-12-07T11:09:53;101727.63;;;2.50;100.00
61119;BME280;51448;51.660;5.824;2023-12-07T11:12:50;101731.19;;;2.55;100.00
61119;BME280;51448;51.660;5.824;2023-12-07T11:15:25;101729.53;;;2.60;100.00
61119;BME280;51448;51.660;5.824;2023-12-07T11:17:55;101729.66;;;2.65;100.00
61119;BME280;51448;51.660;5.824;2023-12-07T11:20:40;101721.06;;;2.70;100.00
61119;BME280;51448;51.660;5.824;2023-12-07T11:23:09;101721.06;;;2.70;100.00
61119;BME280;51448;51.660;5.824;2023-12-07T11:25:37;101718.47;;;2.70;100.00
61119;BME280;51448;51.660;5.824;2023-12-07T11:28:06;101710.78;;;2.75;100.00
61119;BME280;51448;51.660;5.824;2023-12-07T11:30:35;101707.28;;;2.74;100.00
61119;BME280;51448;51.660;5.824;2023-12-07T11:33:04;101698.66;;;2.75;100.00
61119;BME280;51448;51.660;5.824;2023-12-07T11:35:33;101698.72;;;2.78;100.00
61119;BME280;51448;51.660;5.824;2023-12-07T11:38:05;101692.66;;;2.78;100.00
61119;BME280;51448;51.660;5.824;2023-12-07T11:40:45;101698.72;;;2.78;100.00
61119;BME280;51448;51.660;5.824;2023-12-07T11:46:03;101674.50;;;2.79;100.00
61119;BME280;51448;51.660;5.824;2023-12-07T11:48:31;101678.09;;;2.88;100.00
61119;BME280;51448;51.660;5.824;2023-12-07T11:51:03;101670.47;;;2.98;100.00
61119;BME280;51448;51.660;5.824;2023-12-07T11:53:34;101661.03;;;3.05;100.00
61119;BME280;51448;51.660;5.824;2023-12-07T11:56:07;101663.78;;;3.13;100.00
61119;BME280;51448;51.660;5.824;2023-12-07T11:58:37;101658.69;;;3.19;100.00
61119;BME280;51448;51.660;5.824;2023-12-07T12:01:08;101655.28;;;3.23;100.00
61119;BME280;51448;51.660;5.824;2023-12-07T12:03:37;101657.91;;;3.25;100.00
61119;BME280;51448;51.660;5.824;2023-12-07T12:06:06;101646.63;;;3.24;100.00
61119;BME280;51448;51.660;5.824;2023-12-07T12:08:40;101637.84;;;3.16;100.00
61119;BME280;51448;51.660;5.824;2023-12-07T12:11:09;101635.22;;;3.14;100.00
61119;BME280;51448;51.660;5.824;2023-12-07T12:13:36;101635.13;;;3.08;100.00
61119;BME280;51448;51.660;5.824;2023-12-07T12:16:06;101637.66;;;3.05;100.00
61119;BME280;51448;51.660;5.824;2023-12-07T12:18:34;101635.94;;;3.07;100.00
61119;BME280;51448;51.660;5.824;2023-12-07T12:21:03;101636.81;;;3.06;100.00
61119;BME280;51448;51.660;5.824;2023-12-07T12:23:31;101635.94;;;3.07;100.00
61119;BME280;51448;51.660;5.824;2023-12-07T12:25:58;101643.75;;;3.07;100.00
61119;BME280;51448;51.660;5.824;2023-12-07T12:28:26;101650.75;;;3.11;100.00
61119;BME280;51448;51.660;5.824;2023-12-07T12:30:55;101631.59;;;3.05;100.00
61119;BME280;51448;51.660;5.824;2023-12-07T12:33:22;101635.03;;;3.02;100.00
61119;BME280;51448;51.660;5.824;2023-12-07T12:36:02;101638.50;;;3.02;100.00
61119;BME280;51448;51.660;5.824;2023-12-07T12:38:31;101635.81;;;2.98;100.00
61119;BME280;51448;51.660;5.824;2023-12-07T12:41:09;101615.88;;;2.97;100.00
61119;BME280;51448;51.660;5.824;2023-12-07T12:43:37;101607.19;;;2.95;100.00
61119;BME280;51448;51.660;5.824;2023-12-07T12:46:05;101604.56;;;2.93;100.00
61119;BME280;51448;51.660;5.824;2023-12-07T12:48:33;101606.28;;;2.93;100.00
61119;BME280;51448;51.660;5.824;2023-12-07T12:51:14;101607.13;;;2.90;100.00
61119;BME280;51448;51.660;5.824;2023-12-07T12:53:44;101591.47;;;2.86;100.00
61119;BME280;51448;51.660;5.824;2023-12-07T12:56:21;101596.59;;;2.82;100.00
61119;BME280;51448;51.660;5.824;2023-12-07T12:58:50;101585.25;;;2.77;100.00
61119;BME280;51448;51.660;5.824;2023-12-07T13:01:19;101588.66;;;2.73;100.00
61119;BME280;51448;51.660;5.824;2023-12-07T13:03:48;101582.50;;;2.68;100.00